createdAt,value
2019-04-27T00:00:00.137Z,99.90
2019-04-27T00:06:13.494Z,99.90
2019-04-27T00:09:00.224Z,99.50
2019-04-27T00:11:46.956Z,99.50
2019-04-27T00:14:29.027Z,99.30
2019-04-27T00:17:45.764Z,98.90
2019-04-27T00:20:39.388Z,98.90
2019-04-27T00:23:28.739Z,98.40
2019-04-27T00:26:18.317Z,98.30
2019-04-27T00:32:10.990Z,97.50
2019-04-27T00:34:53.291Z,98.30
2019-04-27T00:37:44.809Z,99.90
2019-04-27T00:41:12.191Z,99.90
2019-04-27T00:43:54.579Z,99.90
2019-04-27T00:46:37.135Z,99.90
2019-04-27T00:51:57.611Z,98.70
2019-04-27T00:54:49.818Z,99.40
2019-04-27T01:04:04.782Z,99.30
2019-04-27T01:10:23.250Z,99.90
2019-04-27T01:13:07.667Z,99.90
2019-04-27T01:15:50.055Z,99.90
2019-04-27T01:18:32.619Z,99.90
2019-04-27T01:21:14.751Z,99.90
2019-04-27T01:23:58.778Z,99.90
2019-04-27T01:26:41.451Z,99.90
2019-04-27T01:33:02.950Z,99.90
2019-04-27T01:36:04.223Z,99.90
2019-04-27T01:39:06.143Z,99.90
2019-04-27T01:41:49.095Z,99.90
2019-04-27T01:44:31.838Z,99.90
2019-04-27T01:47:14.587Z,99.90
2019-04-27T01:49:58.360Z,99.90
2019-04-27T01:52:43.628Z,99.90
2019-04-27T01:55:26.637Z,99.90
2019-04-27T02:05:14.283Z,99.90
2019-04-27T02:08:21.585Z,99.90
2019-04-27T02:11:03.640Z,99.90
2019-04-27T02:13:46.113Z,99.90
2019-04-27T02:16:30.353Z,99.90
2019-04-27T02:19:12.659Z,99.90
2019-04-27T02:21:55.207Z,99.90
2019-04-27T02:24:39.835Z,99.90
2019-04-27T02:27:23.823Z,99.90
2019-04-27T02:36:24.957Z,99.90
2019-04-27T02:39:26.373Z,99.90
2019-04-27T02:42:10.266Z,99.90
2019-04-27T02:44:52.732Z,99.90
2019-04-27T02:48:01.171Z,99.90
2019-04-27T02:50:44.481Z,99.90
2019-04-27T02:53:45.251Z,99.90
2019-04-27T02:56:50.055Z,99.90
2019-04-27T03:02:22.309Z,99.90
2019-04-27T03:05:06.956Z,99.90
2019-04-27T03:08:14.304Z,99.90
2019-04-27T03:10:56.623Z,99.90
2019-04-27T03:14:03.729Z,99.90
2019-04-27T03:20:50.535Z,99.90
2019-04-27T03:23:32.821Z,99.90
2019-04-27T03:26:22.248Z,99.90
2019-04-27T03:29:11.816Z,99.90
2019-04-27T03:32:13.217Z,99.90
2019-04-27T03:34:55.542Z,99.90
2019-04-27T03:37:40.385Z,99.90
2019-04-27T03:40:22.220Z,99.90
2019-04-27T03:43:11.517Z,99.90
2019-04-27T03:46:39.715Z,99.90
2019-04-27T03:49:35.058Z,99.90
2019-04-27T03:58:59.825Z,99.90
2019-04-27T04:02:20.094Z,99.90
2019-04-27T04:05:02.664Z,99.90
2019-04-27T04:08:10.930Z,99.90
2019-04-27T04:10:59.623Z,99.90
2019-04-27T04:14:03.851Z,99.90
2019-04-27T04:16:49.779Z,99.90
2019-04-27T04:19:57.476Z,99.90
2019-04-27T04:22:54.640Z,99.90
2019-04-27T04:25:37.036Z,99.90
2019-04-27T04:28:20.112Z,99.90
2019-04-27T04:31:02.800Z,99.90
2019-04-27T04:33:44.801Z,99.90
2019-04-27T04:36:29.785Z,99.90
2019-04-27T04:39:12.535Z,99.90
2019-04-27T04:42:21.563Z,99.90
2019-04-27T04:45:13.667Z,99.90
2019-04-27T04:47:59.647Z,99.90
2019-04-27T04:56:11.816Z,99.90
2019-04-27T05:02:13.021Z,99.90
2019-04-27T05:08:05.835Z,99.90
2019-04-27T05:10:49.500Z,99.90
2019-04-27T05:13:31.956Z,99.90
2019-04-27T05:16:14.263Z,99.90
2019-04-27T05:19:21.827Z,99.90
2019-04-27T05:22:04.459Z,99.90
2019-04-27T05:24:49.381Z,99.90
2019-04-27T05:27:31.955Z,99.90
2019-04-27T05:30:14.171Z,99.90
2019-04-27T05:36:35.147Z,99.90
2019-04-27T05:39:24.699Z,99.90
2019-04-27T05:49:06.012Z,99.00
2019-04-27T05:52:14.422Z,97.10
2019-04-27T05:54:53.919Z,97.00
2019-04-27T05:57:35.835Z,96.10
2019-04-27T06:00:20.880Z,95.70
2019-04-27T06:03:02.888Z,95.80
2019-04-27T06:05:44.859Z,95.80
2019-04-27T06:08:27.147Z,96.10
2019-04-27T06:11:09.779Z,95.30
2019-04-27T06:17:31.514Z,92.30
2019-04-27T06:20:13.966Z,92.50
2019-04-27T06:22:59.227Z,90.50
2019-04-27T06:25:44.564Z,89.00
2019-04-27T06:31:10.786Z,87.30
2019-04-27T06:33:54.975Z,87.30
2019-04-27T06:39:49.474Z,86.50
2019-04-27T06:42:31.986Z,85.20
2019-04-27T06:45:02.811Z,84.70
2019-04-27T06:47:51.273Z,85.30
2019-04-27T06:53:42.965Z,85.20
2019-04-27T06:56:25.031Z,78.40
2019-04-27T06:59:08.604Z,73.80
2019-04-27T07:01:51.092Z,73.20
2019-04-27T07:04:59.288Z,74.80
2019-04-27T07:07:41.189Z,71.50
2019-04-27T07:10:23.092Z,71.30
2019-04-27T07:13:04.880Z,71.80
2019-04-27T07:15:48.502Z,71.50
2019-04-27T07:18:50.407Z,73.80
2019-04-27T07:22:12.271Z,75.00
2019-04-27T07:24:56.255Z,75.60
2019-04-27T07:30:58.746Z,80.10
2019-04-27T07:33:40.475Z,76.20
2019-04-27T07:42:46.005Z,57.70
2019-04-27T07:45:31.718Z,59.50
2019-04-27T07:48:14.111Z,63.90
2019-04-27T07:51:06.767Z,64.40
2019-04-27T07:53:48.924Z,66.40
2019-04-27T07:56:31.502Z,69.60
2019-04-27T07:59:32.575Z,68.10
2019-04-27T08:02:03.047Z,66.50
2019-04-27T08:11:46.512Z,61.10
2019-04-27T08:21:09.047Z,59.10
2019-04-27T08:24:00.164Z,61.10
2019-04-27T08:33:46.587Z,65.50
2019-04-27T08:36:35.803Z,63.90
2019-04-27T08:39:18.687Z,67.90
2019-04-27T08:42:19.915Z,67.60
2019-04-27T08:45:02.524Z,69.40
2019-04-27T08:51:22.682Z,75.60
2019-04-27T08:56:49.921Z,78.80
2019-04-27T08:59:31.767Z,80.00
2019-04-27T09:05:52.751Z,83.50
2019-04-27T09:08:35.579Z,85.40
2019-04-27T09:24:30.123Z,92.70
2019-04-27T09:27:20.023Z,92.70
2019-04-27T09:30:02.000Z,92.70
2019-04-27T09:32:53.399Z,91.50
2019-04-27T09:35:35.727Z,90.70
2019-04-27T09:41:57.209Z,88.10
2019-04-27T09:44:39.915Z,85.60
2019-04-27T09:47:22.364Z,82.50
2019-04-27T09:50:13.555Z,80.50
2019-04-27T09:52:56.128Z,80.60
2019-04-27T09:55:38.716Z,82.60
2019-04-27T10:01:59.611Z,72.70
2019-04-27T10:04:41.991Z,74.30
2019-04-27T10:07:23.927Z,72.50
2019-04-27T10:10:26.578Z,74.30
2019-04-27T10:13:08.862Z,72.40
2019-04-27T10:18:36.646Z,74.20
2019-04-27T10:21:18.519Z,75.60
2019-04-27T10:26:44.118Z,71.70
2019-04-27T10:29:26.804Z,68.20
2019-04-27T10:32:36.129Z,69.50
2019-04-27T10:42:07.985Z,68.30
2019-04-27T10:47:33.859Z,63.80
2019-04-27T10:50:16.063Z,65.80
2019-04-27T10:52:59.319Z,65.50
2019-04-27T10:55:41.794Z,70.10
2019-04-27T10:58:43.155Z,72.00
2019-04-27T11:08:03.347Z,73.10
2019-04-27T11:10:46.206Z,73.60
2019-04-27T11:13:57.215Z,73.50
2019-04-27T11:16:39.628Z,75.70
2019-04-27T11:19:22.027Z,76.20
2019-04-27T11:25:42.171Z,78.00
2019-04-27T11:32:20.203Z,78.50
2019-04-27T11:35:22.751Z,76.40
2019-04-27T11:38:05.631Z,76.50
2019-04-27T11:44:09.628Z,75.80
2019-04-27T11:46:52.365Z,73.90
2019-04-27T11:53:06.008Z,74.80
2019-04-27T11:55:51.547Z,73.40
2019-04-27T11:58:35.010Z,73.90
2019-04-27T12:01:36.532Z,75.50
2019-04-27T12:04:19.694Z,75.30
2019-04-27T12:10:30.599Z,75.80
2019-04-27T12:13:01.095Z,75.00
2019-04-27T12:15:51.265Z,77.30
2019-04-27T12:21:42.415Z,77.80
2019-04-27T12:24:27.644Z,87.70
2019-04-27T12:27:32.301Z,90.00
2019-04-27T12:30:52.559Z,91.60
2019-04-27T12:33:52.888Z,93.80
2019-04-27T12:36:35.906Z,93.70
2019-04-27T12:39:18.636Z,94.50
2019-04-27T12:42:02.171Z,94.10
2019-04-27T12:48:23.999Z,93.80
2019-04-27T12:51:06.671Z,92.20
2019-04-27T12:56:42.682Z,92.60
2019-04-27T13:03:02.055Z,91.50
2019-04-27T13:05:44.044Z,91.00
2019-04-27T13:15:13.599Z,88.70
2019-04-27T13:24:38.823Z,88.50
2019-04-27T13:27:29.830Z,90.20
2019-04-27T13:30:00.472Z,91.10
2019-04-27T13:35:10.978Z,90.90
2019-04-27T13:37:53.113Z,91.20
2019-04-27T13:40:36.571Z,91.70
2019-04-27T13:43:43.963Z,91.70
2019-04-27T13:46:50.887Z,92.30
2019-04-27T13:50:18.239Z,91.60
2019-04-27T13:56:58.944Z,90.90
2019-04-27T13:59:31.722Z,91.30
2019-04-27T14:02:41.038Z,91.60
2019-04-27T14:05:23.012Z,91.10
2019-04-27T14:11:35.065Z,89.10
2019-04-27T14:18:14.217Z,86.80
2019-04-27T14:20:56.392Z,87.70
2019-04-27T14:23:43.114Z,87.00
2019-04-27T14:26:24.808Z,85.40
2019-04-27T14:29:26.084Z,83.10
2019-04-27T14:32:10.394Z,75.70
2019-04-27T14:38:50.211Z,71.40
2019-04-27T14:41:32.451Z,75.50
2019-04-27T14:47:44.319Z,76.20
2019-04-27T14:50:35.589Z,77.60
2019-04-27T14:53:17.734Z,81.80
2019-04-27T14:56:19.210Z,84.70
2019-04-27T14:59:01.037Z,86.50
2019-04-27T15:01:50.775Z,91.70
2019-04-27T15:04:33.677Z,90.00
2019-04-27T15:07:34.629Z,91.20
2019-04-27T15:10:18.139Z,90.80
2019-04-27T15:16:24.623Z,91.90
2019-04-27T15:19:25.536Z,93.80
2019-04-27T15:22:12.693Z,93.00
2019-04-27T15:25:07.715Z,92.80
2019-04-27T15:31:06.803Z,92.00
2019-04-27T15:34:13.895Z,90.70
2019-04-27T15:37:21.276Z,91.00
2019-04-27T15:43:27.416Z,93.10
2019-04-27T15:53:02.826Z,93.70
2019-04-27T15:55:43.961Z,95.00
2019-04-27T15:58:44.854Z,95.30
2019-04-27T16:04:07.655Z,97.30
2019-04-27T16:10:32.776Z,99.20
2019-04-27T16:16:52.491Z,99.40
2019-04-27T16:19:35.151Z,99.70
2019-04-27T16:22:18.443Z,99.60
2019-04-27T16:25:03.737Z,99.80
2019-04-27T16:28:04.525Z,99.70
2019-04-27T16:30:50.644Z,99.60
2019-04-27T16:33:31.810Z,99.70
2019-04-27T16:36:06.841Z,99.60
2019-04-27T16:39:12.540Z,99.10
2019-04-27T16:41:55.398Z,99.90
2019-04-27T16:44:39.978Z,99.80
2019-04-27T16:47:40.623Z,99.70
2019-04-27T16:50:25.358Z,99.80
2019-04-27T16:53:38.215Z,99.40
2019-04-27T16:56:35.095Z,99.20
2019-04-27T16:59:38.754Z,98.50
2019-04-27T17:02:23.618Z,98.30
2019-04-27T17:05:04.464Z,99.20
2019-04-27T17:11:17.056Z,99.90
2019-04-27T17:17:50.983Z,99.90
2019-04-27T17:27:20.828Z,99.90
2019-04-27T17:30:01.622Z,99.90
2019-04-27T17:36:16.304Z,99.90
2019-04-27T17:42:30.593Z,99.90
2019-04-27T17:48:41.470Z,99.90
2019-04-27T17:55:01.379Z,99.90
2019-04-27T18:04:55.187Z,99.90
2019-04-27T18:07:57.964Z,99.90
2019-04-27T18:11:03.023Z,99.90
2019-04-27T18:13:42.447Z,99.90
2019-04-27T18:19:57.578Z,99.90
2019-04-27T18:29:12.417Z,99.90
2019-04-27T18:32:13.850Z,99.90
2019-04-27T18:34:56.015Z,99.90
2019-04-27T18:41:11.661Z,99.90
2019-04-27T18:47:49.456Z,99.90
2019-04-27T18:53:33.643Z,99.90
2019-04-27T18:56:05.368Z,99.90
2019-04-27T18:59:32.651Z,99.90
2019-04-27T19:02:45.695Z,99.90
2019-04-27T19:05:37.957Z,99.90
2019-04-27T19:08:30.063Z,99.90
2019-04-27T19:11:13.443Z,99.90
2019-04-27T19:27:45.655Z,99.90
2019-04-27T19:31:05.680Z,99.90
2019-04-27T19:33:48.158Z,99.90
2019-04-27T19:36:38.710Z,99.90
2019-04-27T19:39:13.786Z,99.90
2019-04-27T19:48:50.856Z,99.90
2019-04-27T19:54:05.807Z,99.90
2019-04-27T20:01:09.102Z,99.90
2019-04-27T20:03:34.092Z,99.90
2019-04-27T20:12:34.851Z,99.90
2019-04-27T20:15:17.057Z,99.90
2019-04-27T20:17:48.182Z,99.90
2019-04-27T20:23:56.896Z,99.90
2019-04-27T20:26:39.737Z,99.90
2019-04-27T20:29:48.640Z,99.90
2019-04-27T20:32:31.524Z,99.90
2019-04-27T20:35:14.425Z,99.90
2019-04-27T20:37:57.272Z,99.90
2019-04-27T20:40:39.111Z,99.90
2019-04-27T20:43:24.494Z,99.90
2019-04-27T20:46:05.257Z,99.90
2019-04-27T20:48:48.215Z,99.90
2019-04-27T20:54:30.611Z,99.90
2019-04-27T20:57:13.939Z,99.90
2019-04-27T20:59:56.319Z,99.90
2019-04-27T21:06:22.972Z,99.90
2019-04-27T21:09:24.279Z,99.90
2019-04-27T21:12:09.791Z,99.90
2019-04-27T21:17:31.920Z,99.90
2019-04-27T21:20:02.338Z,99.90
2019-04-27T21:26:09.752Z,99.90
2019-04-27T21:28:52.305Z,99.90
2019-04-27T21:31:34.007Z,99.90
2019-04-27T21:34:34.963Z,99.90
2019-04-27T21:40:56.335Z,99.90
2019-04-27T21:43:57.612Z,99.90
2019-04-27T21:47:00.776Z,99.90
2019-04-27T21:49:43.375Z,99.90
2019-04-27T21:52:31.497Z,99.90
2019-04-27T21:55:32.499Z,99.90
2019-04-27T21:58:03.286Z,99.90
2019-04-27T22:01:13.174Z,99.90
2019-04-27T22:04:14.999Z,99.90
2019-04-27T22:06:57.572Z,99.90
2019-04-27T22:09:28.455Z,99.90
2019-04-27T22:12:21.257Z,99.90
2019-04-27T22:15:11.137Z,99.90
2019-04-27T22:18:21.304Z,99.90
2019-04-27T22:21:22.619Z,99.90
2019-04-27T22:27:43.272Z,99.90
2019-04-27T22:30:28.048Z,99.90
2019-04-27T22:36:21.839Z,99.90
2019-04-27T22:42:36.055Z,99.90
2019-04-27T22:48:07.639Z,99.90
2019-04-27T22:50:51.451Z,99.90
2019-04-27T22:53:33.748Z,99.90
2019-04-27T22:56:22.308Z,99.90
2019-04-27T22:59:42.460Z,99.90
2019-04-27T23:02:31.990Z,99.90
2019-04-27T23:05:23.187Z,99.90
2019-04-27T23:08:06.471Z,99.90
2019-04-27T23:10:48.811Z,99.90
2019-04-27T23:17:29.156Z,99.90
2019-04-27T23:20:12.235Z,99.90
2019-04-27T23:22:54.571Z,99.90
2019-04-27T23:25:37.000Z,99.90
2019-04-27T23:28:20.904Z,99.90
2019-04-27T23:34:41.507Z,99.90
2019-04-27T23:37:24.275Z,99.90
2019-04-27T23:40:06.869Z,99.90
2019-04-27T23:42:48.591Z,99.90
2019-04-27T23:45:31.883Z,99.90
2019-04-27T23:48:13.604Z,99.90
2019-04-27T23:50:56.093Z,99.90
2019-04-27T23:53:38.419Z,99.90
2019-04-27T23:56:22.513Z,99.90
2019-04-27T23:59:04.390Z,99.90
